sensor_id;sensor_type;location;lat;lon;timestamp;P1;durP1;ratioP1;P2;durP2;ratioP2
76617;SDS011;65509;42.816;74.648;2024-02-15T00:00:16;30.40;;;7.88;;
76617;SDS011;65509;42.816;74.648;2024-02-15T00:02:42;18.70;;;5.88;;
76617;SDS011;65509;42.816;74.648;2024-02-15T00:05:10;23.77;;;5.10;;
76617;SDS011;65509;42.816;74.648;2024-02-15T00:07:35;22.83;;;3.80;;
76617;SDS011;65509;42.816;74.648;2024-02-15T00:10:01;26.08;;;4.72;;
76617;SDS011;65509;42.816;74.648;2024-02-15T00:12:26;24.10;;;4.32;;
76617;SDS011;65509;42.816;74.648;2024-02-15T00:14:52;34.35;;;4.43;;
76617;SDS011;65509;42.816;74.648;2024-02-15T00:17:17;22.35;;;3.15;;
76617;SDS011;65509;42.816;74.648;2024-02-15T00:19:43;21.73;;;3.50;;
76617;SDS011;65509;42.816;74.648;2024-02-15T00:22:09;24.75;;;4.43;;
76617;SDS011;65509;42.816;74.648;2024-02-15T00:24:36;29.02;;;3.63;;
76617;SDS011;65509;42.816;74.648;2024-02-15T00:27:02;22.77;;;3.90;;
76617;SDS011;65509;42.816;74.648;2024-02-15T00:29:27;35.65;;;5.75;;
76617;SDS011;65509;42.816;74.648;2024-02-15T00:31:54;44.83;;;5.47;;
76617;SDS011;65509;42.816;74.648;2024-02-15T00:34:20;28.27;;;3.80;;
76617;SDS011;65509;42.816;74.648;2024-02-15T00:36:46;32.67;;;4.28;;
76617;SDS011;65509;42.816;74.648;2024-02-15T00:39:11;24.17;;;3.20;;
76617;SDS011;65509;42.816;74.648;2024-02-15T00:41:39;41.78;;;7.47;;
76617;SDS011;65509;42.816;74.648;2024-02-15T00:44:09;40.92;;;9.52;;
76617;SDS011;65509;42.816;74.648;2024-02-15T00:46:38;25.05;;;3.90;;
76617;SDS011;65509;42.816;74.648;2024-02-15T00:49:04;41.35;;;3.15;;
76617;SDS011;65509;42.816;74.648;2024-02-15T00:51:59;23.45;;;3.78;;
76617;SDS011;65509;42.816;74.648;2024-02-15T00:54:24;38.03;;;5.70;;
76617;SDS011;65509;42.816;74.648;2024-02-15T00:56:50;50.42;;;5.43;;
76617;SDS011;65509;42.816;74.648;2024-02-15T00:59:25;58.00;;;7.80;;
76617;SDS011;65509;42.816;74.648;2024-02-15T01:01:50;52.13;;;10.10;;
76617;SDS011;65509;42.816;74.648;2024-02-15T01:04:15;39.67;;;10.77;;
76617;SDS011;65509;42.816;74.648;2024-02-15T01:06:41;36.22;;;12.52;;
76617;SDS011;65509;42.816;74.648;2024-02-15T01:09:07;31.05;;;8.65;;
76617;SDS011;65509;42.816;74.648;2024-02-15T01:11:36;20.67;;;7.30;;
76617;SDS011;65509;42.816;74.648;2024-02-15T01:14:02;38.80;;;7.25;;
76617;SDS011;65509;42.816;74.648;2024-02-15T01:16:28;43.47;;;7.05;;
76617;SDS011;65509;42.816;74.648;2024-02-15T01:22:11;30.95;;;4.88;;
76617;SDS011;65509;42.816;74.648;2024-02-15T01:24:55;37.72;;;4.15;;
76617;SDS011;65509;42.816;74.648;2024-02-15T01:27:22;20.58;;;3.80;;
76617;SDS011;65509;42.816;74.648;2024-02-15T01:29:50;55.22;;;7.03;;
76617;SDS011;65509;42.816;74.648;2024-02-15T01:32:21;24.27;;;6.55;;
76617;SDS011;65509;42.816;74.648;2024-02-15T01:34:50;39.60;;;7.85;;
76617;SDS011;65509;42.816;74.648;2024-02-15T01:37:35;31.10;;;7.05;;
76617;SDS011;65509;42.816;74.648;2024-02-15T01:40:21;34.15;;;6.03;;
76617;SDS011;65509;42.816;74.648;2024-02-15T01:42:47;32.97;;;5.30;;
76617;SDS011;65509;42.816;74.648;2024-02-15T01:45:18;30.50;;;5.68;;
76617;SDS011;65509;42.816;74.648;2024-02-15T01:47:48;56.45;;;11.15;;
76617;SDS011;65509;42.816;74.648;2024-02-15T01:50:13;66.93;;;14.98;;
76617;SDS011;65509;42.816;74.648;2024-02-15T01:52:41;55.03;;;12.73;;
76617;SDS011;65509;42.816;74.648;2024-02-15T01:55:14;52.35;;;10.65;;
76617;SDS011;65509;42.816;74.648;2024-02-15T01:57:45;50.80;;;12.88;;
76617;SDS011;65509;42.816;74.648;2024-02-15T02:00:14;56.92;;;19.60;;
76617;SDS011;65509;42.816;74.648;2024-02-15T02:02:41;68.07;;;21.10;;
76617;SDS011;65509;42.816;74.648;2024-02-15T02:05:13;50.33;;;13.07;;
76617;SDS011;65509;42.816;74.648;2024-02-15T02:07:38;42.88;;;9.00;;
76617;SDS011;65509;42.816;74.648;2024-02-15T02:10:07;55.08;;;7.93;;
76617;SDS011;65509;42.816;74.648;2024-02-15T02:12:32;34.20;;;7.45;;
76617;SDS011;65509;42.816;74.648;2024-02-15T02:14:58;49.97;;;8.20;;
76617;SDS011;65509;42.816;74.648;2024-02-15T02:17:24;34.80;;;6.18;;
76617;SDS011;65509;42.816;74.648;2024-02-15T02:19:49;28.88;;;5.57;;
76617;SDS011;65509;42.816;74.648;2024-02-15T02:22:15;29.02;;;4.57;;
76617;SDS011;65509;42.816;74.648;2024-02-15T02:24:58;21.52;;;4.72;;
76617;SDS011;65509;42.816;74.648;2024-02-15T02:27:24;32.17;;;4.47;;
76617;SDS011;65509;42.816;74.648;2024-02-15T02:29:51;49.30;;;5.18;;
76617;SDS011;65509;42.816;74.648;2024-02-15T02:32:17;41.17;;;5.15;;
76617;SDS011;65509;42.816;74.648;2024-02-15T02:34:42;32.17;;;5.72;;
76617;SDS011;65509;42.816;74.648;2024-02-15T02:37:09;40.10;;;6.80;;
76617;SDS011;65509;42.816;74.648;2024-02-15T02:39:39;34.67;;;6.80;;
76617;SDS011;65509;42.816;74.648;2024-02-15T02:42:08;43.22;;;7.28;;
76617;SDS011;65509;42.816;74.648;2024-02-15T02:44:33;32.17;;;7.68;;
76617;SDS011;65509;42.816;74.648;2024-02-15T02:46:59;55.78;;;16.38;;
76617;SDS011;65509;42.816;74.648;2024-02-15T02:49:25;50.97;;;19.05;;
76617;SDS011;65509;42.816;74.648;2024-02-15T02:51:53;56.15;;;18.80;;
76617;SDS011;65509;42.816;74.648;2024-02-15T02:54:19;48.10;;;20.27;;
76617;SDS011;65509;42.816;74.648;2024-02-15T02:56:44;59.35;;;22.23;;
76617;SDS011;65509;42.816;74.648;2024-02-15T02:59:15;45.65;;;18.08;;
76617;SDS011;65509;42.816;74.648;2024-02-15T03:01:41;48.03;;;13.23;;
76617;SDS011;65509;42.816;74.648;2024-02-15T03:04:10;74.47;;;21.33;;
76617;SDS011;65509;42.816;74.648;2024-02-15T03:06:37;69.63;;;21.83;;
76617;SDS011;65509;42.816;74.648;2024-02-15T03:09:06;51.58;;;12.25;;
76617;SDS011;65509;42.816;74.648;2024-02-15T03:11:37;28.23;;;8.60;;
76617;SDS011;65509;42.816;74.648;2024-02-15T03:14:03;27.80;;;8.85;;
76617;SDS011;65509;42.816;74.648;2024-02-15T03:16:30;35.60;;;8.82;;
76617;SDS011;65509;42.816;74.648;2024-02-15T03:18:56;48.15;;;8.00;;
76617;SDS011;65509;42.816;74.648;2024-02-15T03:21:21;33.83;;;7.50;;
76617;SDS011;65509;42.816;74.648;2024-02-15T03:23:51;30.88;;;9.35;;
76617;SDS011;65509;42.816;74.648;2024-02-15T03:26:31;51.17;;;12.23;;
76617;SDS011;65509;42.816;74.648;2024-02-15T03:29:05;48.25;;;11.75;;
76617;SDS011;65509;42.816;74.648;2024-02-15T03:31:33;25.58;;;8.63;;
76617;SDS011;65509;42.816;74.648;2024-02-15T03:34:00;43.70;;;9.30;;
76617;SDS011;65509;42.816;74.648;2024-02-15T03:36:25;30.83;;;6.40;;
76617;SDS011;65509;42.816;74.648;2024-02-15T03:38:51;29.52;;;6.40;;
76617;SDS011;65509;42.816;74.648;2024-02-15T03:41:18;33.58;;;7.90;;
76617;SDS011;65509;42.816;74.648;2024-02-15T03:43:44;37.35;;;8.55;;
76617;SDS011;65509;42.816;74.648;2024-02-15T03:46:14;41.67;;;7.20;;
76617;SDS011;65509;42.816;74.648;2024-02-15T03:48:42;22.55;;;5.20;;
76617;SDS011;65509;42.816;74.648;2024-02-15T03:51:09;39.30;;;4.97;;
76617;SDS011;65509;42.816;74.648;2024-02-15T03:53:34;14.13;;;4.10;;
76617;SDS011;65509;42.816;74.648;2024-02-15T03:56:03;30.92;;;6.57;;
76617;SDS011;65509;42.816;74.648;2024-02-15T03:58:31;26.48;;;6.40;;
76617;SDS011;65509;42.816;74.648;2024-02-15T04:00:58;42.78;;;9.93;;
76617;SDS011;65509;42.816;74.648;2024-02-15T04:03:26;37.60;;;10.93;;
76617;SDS011;65509;42.816;74.648;2024-02-15T04:05:51;44.80;;;10.18;;
76617;SDS011;65509;42.816;74.648;2024-02-15T04:08:26;39.60;;;9.88;;
76617;SDS011;65509;42.816;74.648;2024-02-15T04:10:52;44.30;;;8.45;;
76617;SDS011;65509;42.816;74.648;2024-02-15T04:13:18;47.70;;;7.07;;
76617;SDS011;65509;42.816;74.648;2024-02-15T04:15:44;41.58;;;6.93;;
76617;SDS011;65509;42.816;74.648;2024-02-15T04:18:12;37.92;;;6.47;;
76617;SDS011;65509;42.816;74.648;2024-02-15T04:20:39;25.88;;;7.65;;
76617;SDS011;65509;42.816;74.648;2024-02-15T04:23:12;53.30;;;9.27;;
76617;SDS011;65509;42.816;74.648;2024-02-15T04:25:42;34.30;;;8.48;;
76617;SDS011;65509;42.816;74.648;2024-02-15T04:28:34;64.70;;;9.05;;
76617;SDS011;65509;42.816;74.648;2024-02-15T04:34:20;27.00;;;8.35;;
76617;SDS011;65509;42.816;74.648;2024-02-15T04:36:48;49.63;;;7.90;;
76617;SDS011;65509;42.816;74.648;2024-02-15T04:39:22;35.92;;;7.40;;
76617;SDS011;65509;42.816;74.648;2024-02-15T04:41:53;28.40;;;7.38;;
76617;SDS011;65509;42.816;74.648;2024-02-15T04:47:09;37.17;;;6.97;;
76617;SDS011;65509;42.816;74.648;2024-02-15T04:49:40;32.55;;;7.32;;
76617;SDS011;65509;42.816;74.648;2024-02-15T04:52:09;28.23;;;6.55;;
76617;SDS011;65509;42.816;74.648;2024-02-15T04:54:35;35.92;;;7.05;;
76617;SDS011;65509;42.816;74.648;2024-02-15T04:57:00;45.45;;;7.82;;
76617;SDS011;65509;42.816;74.648;2024-02-15T04:59:27;31.90;;;7.05;;
76617;SDS011;65509;42.816;74.648;2024-02-15T05:01:54;31.13;;;6.40;;
76617;SDS011;65509;42.816;74.648;2024-02-15T05:04:22;35.17;;;8.40;;
76617;SDS011;65509;42.816;74.648;2024-02-15T05:06:52;45.58;;;9.13;;
76617;SDS011;65509;42.816;74.648;2024-02-15T05:09:30;45.08;;;9.80;;
76617;SDS011;65509;42.816;74.648;2024-02-15T05:12:01;34.03;;;7.97;;
76617;SDS011;65509;42.816;74.648;2024-02-15T05:14:29;38.42;;;7.07;;
76617;SDS011;65509;42.816;74.648;2024-02-15T05:16:55;32.90;;;5.15;;
76617;SDS011;65509;42.816;74.648;2024-02-15T05:19:20;24.00;;;3.70;;
76617;SDS011;65509;42.816;74.648;2024-02-15T05:21:49;31.70;;;4.10;;
76617;SDS011;65509;42.816;74.648;2024-02-15T05:24:22;41.13;;;4.28;;
76617;SDS011;65509;42.816;74.648;2024-02-15T05:26:51;28.63;;;4.22;;
76617;SDS011;65509;42.816;74.648;2024-02-15T05:32:11;54.67;;;5.63;;
76617;SDS011;65509;42.816;74.648;2024-02-15T05:34:46;45.45;;;5.85;;
76617;SDS011;65509;42.816;74.648;2024-02-15T05:37:14;36.28;;;6.03;;
76617;SDS011;65509;42.816;74.648;2024-02-15T05:39:41;32.88;;;7.15;;
76617;SDS011;65509;42.816;74.648;2024-02-15T05:42:06;56.63;;;10.85;;
76617;SDS011;65509;42.816;74.648;2024-02-15T05:44:32;44.83;;;12.25;;
76617;SDS011;65509;42.816;74.648;2024-02-15T05:47:00;29.65;;;8.15;;
76617;SDS011;65509;42.816;74.648;2024-02-15T05:49:27;37.33;;;6.53;;
76617;SDS011;65509;42.816;74.648;2024-02-15T05:51:53;25.25;;;4.47;;
76617;SDS011;65509;42.816;74.648;2024-02-15T05:54:22;37.22;;;3.53;;
76617;SDS011;65509;42.816;74.648;2024-02-15T05:56:57;17.42;;;2.67;;
76617;SDS011;65509;42.816;74.648;2024-02-15T05:59:50;27.48;;;3.00;;
76617;SDS011;65509;42.816;74.648;2024-02-15T06:02:18;18.98;;;2.22;;
76617;SDS011;65509;42.816;74.648;2024-02-15T06:04:52;18.48;;;2.72;;
76617;SDS011;65509;42.816;74.648;2024-02-15T06:07:25;33.60;;;3.25;;
76617;SDS011;65509;42.816;74.648;2024-02-15T06:09:51;18.58;;;3.10;;
76617;SDS011;65509;42.816;74.648;2024-02-15T06:12:16;46.15;;;3.75;;
76617;SDS011;65509;42.816;74.648;2024-02-15T06:14:42;38.53;;;3.15;;
76617;SDS011;65509;42.816;74.648;2024-02-15T06:17:07;31.10;;;3.05;;
76617;SDS011;65509;42.816;74.648;2024-02-15T06:19:35;24.05;;;2.75;;
76617;SDS011;65509;42.816;74.648;2024-02-15T06:22:04;30.25;;;3.22;;
76617;SDS011;65509;42.816;74.648;2024-02-15T06:24:32;26.20;;;3.72;;
76617;SDS011;65509;42.816;74.648;2024-02-15T06:27:01;36.10;;;3.88;;
76617;SDS011;65509;42.816;74.648;2024-02-15T06:29:29;14.98;;;2.72;;
76617;SDS011;65509;42.816;74.648;2024-02-15T06:32:13;37.78;;;3.67;;
76617;SDS011;65509;42.816;74.648;2024-02-15T06:37:41;29.03;;;3.60;;
76617;SDS011;65509;42.816;74.648;2024-02-15T06:42:50;27.47;;;6.80;;
76617;SDS011;65509;42.816;74.648;2024-02-15T06:45:24;26.95;;;6.80;;
76617;SDS011;65509;42.816;74.648;2024-02-15T06:47:51;42.22;;;8.18;;
76617;SDS011;65509;42.816;74.648;2024-02-15T06:50:16;42.50;;;8.68;;
76617;SDS011;65509;42.816;74.648;2024-02-15T06:52:42;27.98;;;8.32;;
76617;SDS011;65509;42.816;74.648;2024-02-15T06:55:07;42.35;;;8.70;;
76617;SDS011;65509;42.816;74.648;2024-02-15T06:57:42;33.88;;;7.40;;
76617;SDS011;65509;42.816;74.648;2024-02-15T07:00:34;40.10;;;7.28;;
76617;SDS011;65509;42.816;74.648;2024-02-15T07:03:06;52.58;;;7.28;;
76617;SDS011;65509;42.816;74.648;2024-02-15T07:05:42;52.67;;;7.97;;
76617;SDS011;65509;42.816;74.648;2024-02-15T07:08:07;37.03;;;7.85;;
76617;SDS011;65509;42.816;74.648;2024-02-15T07:10:38;36.30;;;7.68;;
76617;SDS011;65509;42.816;74.648;2024-02-15T07:13:04;33.92;;;10.13;;
76617;SDS011;65509;42.816;74.648;2024-02-15T07:15:34;38.45;;;11.07;;
76617;SDS011;65509;42.816;74.648;2024-02-15T07:18:06;39.63;;;10.82;;
76617;SDS011;65509;42.816;74.648;2024-02-15T07:20:45;34.85;;;10.55;;
76617;SDS011;65509;42.816;74.648;2024-02-15T07:23:14;52.03;;;10.60;;
76617;SDS011;65509;42.816;74.648;2024-02-15T07:25:42;25.70;;;6.47;;
76617;SDS011;65509;42.816;74.648;2024-02-15T07:28:07;41.13;;;6.60;;
76617;SDS011;65509;42.816;74.648;2024-02-15T07:30:35;26.80;;;4.82;;
76617;SDS011;65509;42.816;74.648;2024-02-15T07:33:01;21.88;;;5.40;;
76617;SDS011;65509;42.816;74.648;2024-02-15T07:35:27;22.23;;;4.30;;
76617;SDS011;65509;42.816;74.648;2024-02-15T07:37:54;28.35;;;3.10;;
76617;SDS011;65509;42.816;74.648;2024-02-15T07:40:25;30.27;;;3.25;;
76617;SDS011;65509;42.816;74.648;2024-02-15T07:43:05;21.10;;;4.28;;
76617;SDS011;65509;42.816;74.648;2024-02-15T07:45:34;56.13;;;8.23;;
76617;SDS011;65509;42.816;74.648;2024-02-15T07:48:02;37.53;;;9.57;;
76617;SDS011;65509;42.816;74.648;2024-02-15T07:50:30;50.40;;;10.48;;
76617;SDS011;65509;42.816;74.648;2024-02-15T07:53:01;39.92;;;10.07;;
76617;SDS011;65509;42.816;74.648;2024-02-15T07:55:33;33.85;;;9.15;;
76617;SDS011;65509;42.816;74.648;2024-02-15T07:57:59;44.20;;;9.15;;
76617;SDS011;65509;42.816;74.648;2024-02-15T08:00:29;38.08;;;8.30;;
76617;SDS011;65509;42.816;74.648;2024-02-15T08:03:00;55.83;;;9.20;;
76617;SDS011;65509;42.816;74.648;2024-02-15T08:05:28;26.70;;;8.45;;
76617;SDS011;65509;42.816;74.648;2024-02-15T08:08:11;19.05;;;5.75;;
76617;SDS011;65509;42.816;74.648;2024-02-15T08:11:02;56.10;;;8.15;;
76617;SDS011;65509;42.816;74.648;2024-02-15T08:16:15;50.00;;;9.35;;
76617;SDS011;65509;42.816;74.648;2024-02-15T08:18:43;38.88;;;8.90;;
76617;SDS011;65509;42.816;74.648;2024-02-15T08:21:29;53.50;;;9.20;;
76617;SDS011;65509;42.816;74.648;2024-02-15T08:23:58;39.50;;;9.57;;
76617;SDS011;65509;42.816;74.648;2024-02-15T08:26:38;41.60;;;9.80;;
76617;SDS011;65509;42.816;74.648;2024-02-15T08:29:04;43.65;;;8.60;;
76617;SDS011;65509;42.816;74.648;2024-02-15T08:31:34;40.47;;;9.02;;
76617;SDS011;65509;42.816;74.648;2024-02-15T08:34:00;36.85;;;10.88;;
76617;SDS011;65509;42.816;74.648;2024-02-15T08:36:32;62.90;;;9.95;;
76617;SDS011;65509;42.816;74.648;2024-02-15T08:39:24;45.05;;;10.38;;
76617;SDS011;65509;42.816;74.648;2024-02-15T08:41:52;56.30;;;12.77;;
76617;SDS011;65509;42.816;74.648;2024-02-15T08:47:18;53.67;;;17.38;;
76617;SDS011;65509;42.816;74.648;2024-02-15T08:49:46;61.58;;;18.85;;
76617;SDS011;65509;42.816;74.648;2024-02-15T08:52:26;70.65;;;20.00;;
76617;SDS011;65509;42.816;74.648;2024-02-15T08:55:12;45.58;;;17.25;;
76617;SDS011;65509;42.816;74.648;2024-02-15T08:57:42;52.13;;;13.45;;
76617;SDS011;65509;42.816;74.648;2024-02-15T09:00:10;37.92;;;10.38;;
76617;SDS011;65509;42.816;74.648;2024-02-15T09:02:47;48.88;;;9.73;;
76617;SDS011;65509;42.816;74.648;2024-02-15T09:05:14;44.60;;;11.13;;
76617;SDS011;65509;42.816;74.648;2024-02-15T09:07:45;63.40;;;13.38;;
76617;SDS011;65509;42.816;74.648;2024-02-15T09:10:30;66.00;;;14.20;;
76617;SDS011;65509;42.816;74.648;2024-02-15T09:13:17;94.72;;;13.45;;
76617;SDS011;65509;42.816;74.648;2024-02-15T09:15:47;43.08;;;11.20;;
76617;SDS011;65509;42.816;74.648;2024-02-15T09:18:39;84.55;;;12.25;;
76617;SDS011;65509;42.816;74.648;2024-02-15T09:21:11;34.85;;;9.80;;
76617;SDS011;65509;42.816;74.648;2024-02-15T09:23:41;43.97;;;10.20;;
76617;SDS011;65509;42.816;74.648;2024-02-15T09:26:08;39.55;;;11.35;;
76617;SDS011;65509;42.816;74.648;2024-02-15T09:28:35;51.88;;;11.63;;
76617;SDS011;65509;42.816;74.648;2024-02-15T09:31:01;49.45;;;11.50;;
76617;SDS011;65509;42.816;74.648;2024-02-15T09:33:28;57.55;;;13.00;;
76617;SDS011;65509;42.816;74.648;2024-02-15T09:35:54;53.55;;;11.35;;
76617;SDS011;65509;42.816;74.648;2024-02-15T09:38:20;74.38;;;11.98;;
76617;SDS011;65509;42.816;74.648;2024-02-15T09:40:49;61.30;;;12.90;;
76617;SDS011;65509;42.816;74.648;2024-02-15T09:43:19;55.22;;;15.25;;
76617;SDS011;65509;42.816;74.648;2024-02-15T09:45:46;54.78;;;19.13;;
76617;SDS011;65509;42.816;74.648;2024-02-15T09:48:12;55.72;;;20.35;;
76617;SDS011;65509;42.816;74.648;2024-02-15T09:50:41;64.88;;;17.58;;
76617;SDS011;65509;42.816;74.648;2024-02-15T09:53:13;48.97;;;15.38;;
76617;SDS011;65509;42.816;74.648;2024-02-15T09:55:46;61.03;;;14.35;;
76617;SDS011;65509;42.816;74.648;2024-02-15T09:58:13;54.33;;;14.32;;
76617;SDS011;65509;42.816;74.648;2024-02-15T10:00:40;45.55;;;14.40;;
76617;SDS011;65509;42.816;74.648;2024-02-15T10:03:08;42.83;;;13.43;;
76617;SDS011;65509;42.816;74.648;2024-02-15T10:05:37;50.90;;;13.27;;
76617;SDS011;65509;42.816;74.648;2024-02-15T10:08:05;61.83;;;14.25;;
76617;SDS011;65509;42.816;74.648;2024-02-15T10:10:39;68.15;;;15.35;;
76617;SDS011;65509;42.816;74.648;2024-02-15T10:13:04;78.10;;;16.88;;
76617;SDS011;65509;42.816;74.648;2024-02-15T10:15:33;97.47;;;19.52;;
76617;SDS011;65509;42.816;74.648;2024-02-15T10:18:08;76.55;;;21.83;;
76617;SDS011;65509;42.816;74.648;2024-02-15T10:20:35;95.70;;;24.98;;
76617;SDS011;65509;42.816;74.648;2024-02-15T10:23:15;85.65;;;25.08;;
76617;SDS011;65509;42.816;74.648;2024-02-15T10:25:51;67.57;;;22.48;;
76617;SDS011;65509;42.816;74.648;2024-02-15T10:28:21;64.28;;;19.75;;
76617;SDS011;65509;42.816;74.648;2024-02-15T10:30:52;67.50;;;18.60;;
76617;SDS011;65509;42.816;74.648;2024-02-15T10:33:39;78.18;;;16.83;;
76617;SDS011;65509;42.816;74.648;2024-02-15T10:36:10;58.08;;;15.38;;
76617;SDS011;65509;42.816;74.648;2024-02-15T10:38:42;142.82;;;21.05;;
76617;SDS011;65509;42.816;74.648;2024-02-15T10:41:09;103.70;;;20.25;;
76617;SDS011;65509;42.816;74.648;2024-02-15T10:43:46;76.47;;;11.25;;
76617;SDS011;65509;42.816;74.648;2024-02-15T10:46:13;76.90;;;9.05;;
76617;SDS011;65509;42.816;74.648;2024-02-15T10:48:39;64.28;;;10.75;;
76617;SDS011;65509;42.816;74.648;2024-02-15T10:51:14;74.05;;;14.38;;
76617;SDS011;65509;42.816;74.648;2024-02-15T10:53:45;71.57;;;16.17;;
76617;SDS011;65509;42.816;74.648;2024-02-15T10:56:18;74.82;;;17.77;;
76617;SDS011;65509;42.816;74.648;2024-02-15T10:58:50;54.08;;;14.13;;
76617;SDS011;65509;42.816;74.648;2024-02-15T11:01:37;110.45;;;23.85;;
76617;SDS011;65509;42.816;74.648;2024-02-15T11:04:12;72.55;;;24.58;;
76617;SDS011;65509;42.816;74.648;2024-02-15T11:06:39;74.55;;;20.65;;
76617;SDS011;65509;42.816;74.648;2024-02-15T11:09:09;49.22;;;15.13;;
76617;SDS011;65509;42.816;74.648;2024-02-15T11:11:38;61.42;;;15.48;;
76617;SDS011;65509;42.816;74.648;2024-02-15T11:14:25;82.20;;;19.05;;
76617;SDS011;65509;42.816;74.648;2024-02-15T11:16:52;69.78;;;16.73;;
76617;SDS011;65509;42.816;74.648;2024-02-15T11:21:59;61.35;;;14.70;;
76617;SDS011;65509;42.816;74.648;2024-02-15T11:24:50;77.32;;;16.60;;
76617;SDS011;65509;42.816;74.648;2024-02-15T11:30:09;72.13;;;14.18;;
76617;SDS011;65509;42.816;74.648;2024-02-15T11:32:48;65.28;;;13.55;;
76617;SDS011;65509;42.816;74.648;2024-02-15T11:35:22;63.72;;;14.20;;
76617;SDS011;65509;42.816;74.648;2024-02-15T11:46:19;81.80;;;17.23;;
76617;SDS011;65509;42.816;74.648;2024-02-15T11:49:14;54.88;;;15.40;;
76617;SDS011;65509;42.816;74.648;2024-02-15T11:51:42;60.33;;;15.45;;
76617;SDS011;65509;42.816;74.648;2024-02-15T11:57:08;67.50;;;16.65;;
76617;SDS011;65509;42.816;74.648;2024-02-15T11:59:56;62.13;;;15.10;;
76617;SDS011;65509;42.816;74.648;2024-02-15T12:02:59;62.00;;;17.27;;
76617;SDS011;65509;42.816;74.648;2024-02-15T12:05:43;63.80;;;20.38;;
76617;SDS011;65509;42.816;74.648;2024-02-15T12:08:27;84.13;;;19.60;;
76617;SDS011;65509;42.816;74.648;2024-02-15T12:11:13;51.28;;;11.55;;
76617;SDS011;65509;42.816;74.648;2024-02-15T12:13:57;56.33;;;14.95;;
76617;SDS011;65509;42.816;74.648;2024-02-15T12:16:41;85.63;;;19.85;;
76617;SDS011;65509;42.816;74.648;2024-02-15T12:19:27;99.68;;;22.27;;
76617;SDS011;65509;42.816;74.648;2024-02-15T12:22:03;121.85;;;26.92;;
76617;SDS011;65509;42.816;74.648;2024-02-15T12:25:02;101.35;;;27.48;;
76617;SDS011;65509;42.816;74.648;2024-02-15T12:27:46;96.60;;;24.40;;
76617;SDS011;65509;42.816;74.648;2024-02-15T12:30:44;150.75;;;38.28;;
76617;SDS011;65509;42.816;74.648;2024-02-15T12:33:48;87.40;;;21.05;;
76617;SDS011;65509;42.816;74.648;2024-02-15T12:39:26;171.68;;;62.65;;
76617;SDS011;65509;42.816;74.648;2024-02-15T12:48:06;218.95;;;90.85;;
76617;SDS011;65509;42.816;74.648;2024-02-15T12:56:36;204.77;;;73.97;;
76617;SDS011;65509;42.816;74.648;2024-02-15T13:02:02;110.20;;;45.75;;
76617;SDS011;65509;42.816;74.648;2024-02-15T13:04:29;117.15;;;38.60;;
76617;SDS011;65509;42.816;74.648;2024-02-15T13:07:05;102.63;;;33.22;;
76617;SDS011;65509;42.816;74.648;2024-02-15T13:09:32;82.47;;;28.98;;
76617;SDS011;65509;42.816;74.648;2024-02-15T13:12:00;94.18;;;25.02;;
76617;SDS011;65509;42.816;74.648;2024-02-15T13:14:26;101.20;;;23.08;;
76617;SDS011;65509;42.816;74.648;2024-02-15T13:17:10;90.28;;;20.42;;
76617;SDS011;65509;42.816;74.648;2024-02-15T13:19:36;80.43;;;20.63;;
76617;SDS011;65509;42.816;74.648;2024-02-15T13:22:01;83.10;;;19.88;;
76617;SDS011;65509;42.816;74.648;2024-02-15T13:24:50;77.00;;;22.85;;
76617;SDS011;65509;42.816;74.648;2024-02-15T13:27:29;81.90;;;24.42;;
76617;SDS011;65509;42.816;74.648;2024-02-15T13:30:37;108.32;;;34.50;;
76617;SDS011;65509;42.816;74.648;2024-02-15T13:33:06;96.13;;;30.83;;
76617;SDS011;65509;42.816;74.648;2024-02-15T13:35:49;94.88;;;30.65;;
76617;SDS011;65509;42.816;74.648;2024-02-15T13:38:36;111.30;;;30.38;;
76617;SDS011;65509;42.816;74.648;2024-02-15T13:41:16;133.88;;;34.55;;
76617;SDS011;65509;42.816;74.648;2024-02-15T13:50:14;96.07;;;35.08;;
76617;SDS011;65509;42.816;74.648;2024-02-15T13:58:56;141.05;;;37.03;;
76617;SDS011;65509;42.816;74.648;2024-02-15T14:01:31;104.10;;;37.10;;
76617;SDS011;65509;42.816;74.648;2024-02-15T14:07:42;131.68;;;37.97;;
76617;SDS011;65509;42.816;74.648;2024-02-15T14:10:33;111.45;;;31.58;;
76617;SDS011;65509;42.816;74.648;2024-02-15T14:13:04;112.53;;;35.13;;
76617;SDS011;65509;42.816;74.648;2024-02-15T14:15:34;185.57;;;43.47;;
76617;SDS011;65509;42.816;74.648;2024-02-15T14:18:04;155.32;;;44.95;;
76617;SDS011;65509;42.816;74.648;2024-02-15T14:20:47;131.73;;;43.05;;
76617;SDS011;65509;42.816;74.648;2024-02-15T14:23:16;113.90;;;28.88;;
76617;SDS011;65509;42.816;74.648;2024-02-15T14:25:44;103.95;;;26.98;;
76617;SDS011;65509;42.816;74.648;2024-02-15T14:34:39;132.65;;;32.85;;
76617;SDS011;65509;42.816;74.648;2024-02-15T14:37:25;104.65;;;29.60;;
76617;SDS011;65509;42.816;74.648;2024-02-15T14:42:48;113.32;;;31.02;;
76617;SDS011;65509;42.816;74.648;2024-02-15T14:45:14;140.57;;;37.35;;
76617;SDS011;65509;42.816;74.648;2024-02-15T14:48:02;111.75;;;32.33;;
76617;SDS011;65509;42.816;74.648;2024-02-15T14:50:31;94.80;;;29.48;;
76617;SDS011;65509;42.816;74.648;2024-02-15T14:53:13;104.28;;;29.02;;
76617;SDS011;65509;42.816;74.648;2024-02-15T14:55:46;134.45;;;39.75;;
76617;SDS011;65509;42.816;74.648;2024-02-15T14:58:17;99.35;;;31.48;;
76617;SDS011;65509;42.816;74.648;2024-02-15T15:00:47;87.57;;;29.80;;
76617;SDS011;65509;42.816;74.648;2024-02-15T15:03:32;101.03;;;30.48;;
76617;SDS011;65509;42.816;74.648;2024-02-15T15:06:20;100.43;;;24.58;;
76617;SDS011;65509;42.816;74.648;2024-02-15T15:09:04;94.80;;;23.67;;
76617;SDS011;65509;42.816;74.648;2024-02-15T15:11:56;179.38;;;71.70;;
76617;SDS011;65509;42.816;74.648;2024-02-15T15:14:45;206.57;;;84.75;;
76617;SDS011;65509;42.816;74.648;2024-02-15T15:17:11;147.75;;;57.13;;
76617;SDS011;65509;42.816;74.648;2024-02-15T15:19:41;155.88;;;46.75;;
76617;SDS011;65509;42.816;74.648;2024-02-15T15:25:00;118.53;;;35.10;;
76617;SDS011;65509;42.816;74.648;2024-02-15T15:27:43;160.18;;;40.15;;
76617;SDS011;65509;42.816;74.648;2024-02-15T15:30:30;123.13;;;38.67;;
76617;SDS011;65509;42.816;74.648;2024-02-15T15:33:05;136.27;;;37.95;;
76617;SDS011;65509;42.816;74.648;2024-02-15T15:35:55;116.57;;;36.67;;
76617;SDS011;65509;42.816;74.648;2024-02-15T15:38:39;142.35;;;42.15;;
76617;SDS011;65509;42.816;74.648;2024-02-15T15:41:17;138.18;;;32.83;;
76617;SDS011;65509;42.816;74.648;2024-02-15T15:43:58;125.53;;;35.53;;
76617;SDS011;65509;42.816;74.648;2024-02-15T15:46:54;118.63;;;32.50;;
76617;SDS011;65509;42.816;74.648;2024-02-15T15:49:23;105.30;;;29.27;;
76617;SDS011;65509;42.816;74.648;2024-02-15T15:51:50;90.05;;;24.90;;
76617;SDS011;65509;42.816;74.648;2024-02-15T15:57:10;86.10;;;20.55;;
76617;SDS011;65509;42.816;74.648;2024-02-15T15:59:45;72.95;;;19.90;;
76617;SDS011;65509;42.816;74.648;2024-02-15T16:02:17;74.88;;;20.42;;
76617;SDS011;65509;42.816;74.648;2024-02-15T16:04:50;108.25;;;20.25;;
76617;SDS011;65509;42.816;74.648;2024-02-15T16:07:24;93.78;;;23.02;;
76617;SDS011;65509;42.816;74.648;2024-02-15T16:15:34;235.43;;;46.88;;